WetterOnline ( https://www.wetteronline.de )

Wetter aktuell Brocken

Aktuelles Wetter: Brocken (1141m)

6-stündlich | Neueste Meldungen
Ortszeit Temperatur Wetter
So, 19.05. 8:00 9.1° C wolkig
So, 19.05. 2:00 7.4° C Nebel
Sa, 18.05. 20:00 8.6° C wolkig
Sa, 18.05. 14:00 8.3° C bedeckt
Sa, 18.05. 8:00 6.6° C Nebel
Sa, 18.05. 2:00 6.5° C Nebel
Fr, 17.05. 20:00 8.9° C bedeckt
Fr, 17.05. 14:00 11.2° C bedeckt
Ortszeit Temperatur Wetter
So, 19.05. 9:00 9.3° C bedeckt
So, 19.05. 8:50 9.3° C bedeckt
So, 19.05. 8:40 9.2° C bedeckt
So, 19.05. 8:30 9.6° C bedeckt
So, 19.05. 8:20 9.6° C bedeckt
So, 19.05. 8:10 9.7° C bedeckt
So, 19.05. 8:00 9.1° C wolkig
So, 19.05. 7:30 8.0° C bedeckt
So, 19.05. 7:00 7.8° C bedeckt
So, 19.05. 6:30 7.7° C bedeckt
So, 19.05. 6:00 7.5° C bedeckt
Ortszeit Relative Feuchte Sichtweite
So, 19.05. 8:00 79% 65 km
So, 19.05. 2:00 97% 9 km
Sa, 18.05. 20:00 92% 24 km
Sa, 18.05. 14:00 95% 12 km
Sa, 18.05. 8:00 99% <100 m
Sa, 18.05. 2:00 98% <100 m
Fr, 17.05. 20:00 73% 65 km
Fr, 17.05. 14:00 67% 60 km
Ortszeit Relative Feuchte Sichtweite
So, 19.05. 9:00 76% 40 km
So, 19.05. 8:50 76% -
So, 19.05. 8:40 78% -
So, 19.05. 8:30 76% 50 km
So, 19.05. 8:20 76% -
So, 19.05. 8:10 75% -
So, 19.05. 8:00 79% 65 km
So, 19.05. 7:30 76% 55 km
So, 19.05. 7:00 75% 50 km
So, 19.05. 6:30 75% >70 km
So, 19.05. 6:00 80% 65 km
Ortszeit Niederschlagsmenge Niederschlagsart
So, 19.05. 8:00 0.1 l/m2 in 12 Std. Regen
So, 19.05. 2:00 0.0 l/m2 in 6 Std. -
Sa, 18.05. 20:00 0.5 l/m2 in 12 Std. Regen
Sa, 18.05. 14:00 0.1 l/m2 in 6 Std. Regen
Sa, 18.05. 8:00 0.2 l/m2 in 12 Std. -
Sa, 18.05. 2:00 0.1 l/m2 in 6 Std. -
Fr, 17.05. 20:00 0.0 l/m2 in 12 Std. -
Fr, 17.05. 14:00 0.0 l/m2 in 6 Std. -
Ortszeit Niederschlagsmenge Niederschlagsart
So, 19.05. 9:00 0.0 l/m2 in 1 Std. -
So, 19.05. 8:50 keine Meldung -
So, 19.05. 8:40 keine Meldung -
So, 19.05. 8:30 0.0 l/m2 in 30 Min -
So, 19.05. 8:20 keine Meldung -
So, 19.05. 8:10 keine Meldung -
So, 19.05. 8:00 0.0 l/m2 in 1 Std. Regen
So, 19.05. 7:30 0.0 l/m2 in 30 Min -
So, 19.05. 7:00 0.0 l/m2 in 1 Std. -
So, 19.05. 6:30 0.0 l/m2 in 30 Min -
So, 19.05. 6:00 <0.05 l/m2 in 1 Std. Regen
Ortszeit Stärke Spitze Richtung
km/h Bft. km/h Grad Sektor
So, 19.05. 8:00 6 1 13 80° O
So, 19.05. 2:00 11 2 15 260° W
Sa, 18.05. 20:00 4 1 22 90° O
Sa, 18.05. 14:00 14 3 25 50° NO
Sa, 18.05. 8:00 18 3 40 70° O
Sa, 18.05. 2:00 31 5 67 90° O
Fr, 17.05. 20:00 50 6 72 110° O
Fr, 17.05. 14:00 54 7 76 100° O
Ortszeit Stärke Spitze Richtung
km/h Bft. km/h Grad Sektor
So, 19.05. 9:00 4 1 11 180° S
So, 19.05. 8:50 4 1 - 180° S
So, 19.05. 8:40 7 2 - 190° S
So, 19.05. 8:30 4 1 7 170° S
So, 19.05. 8:20 4 1 - 170° S
So, 19.05. 8:10 4 1 - 120° SO
So, 19.05. 8:00 6 1 7 80° O
So, 19.05. 7:30 6 1 6 70° O
So, 19.05. 7:00 6 1 9 40° NO
So, 19.05. 6:30 7 2 11 20° N
So, 19.05. 6:00 9 2 9 360° N
Ortszeit Untergrenze Bedeckung Gattung
total tief tief mittel hoch
So, 19.05. 8:00 1110 m 8/8 2/8 - - -
So, 19.05. 2:00 <30 m 8/8 0/8 - - -
Sa, 18.05. 20:00 1800 m 8/8 2/8 - - -
Sa, 18.05. 14:00 30 m 8/8 8/8 - - -
Sa, 18.05. 8:00 <30 m 8/8 0/8 - - -
Sa, 18.05. 2:00 <30 m 8/8 0/8 - - -
Fr, 17.05. 20:00 1500 m 8/8 8/8 - - -
Fr, 17.05. 14:00 690 m 8/8 8/8 - - -
Ortszeit Bedeckungsgrad in Achtel und Wolkenuntergrenze
So, 19.05. 9:00 7(360m) 8(1020m) 8(1200m)
So, 19.05. 8:50 7(360m) 8(1020m) 8(1200m)
So, 19.05. 8:40 8
So, 19.05. 8:30 1(360m) 8(1140m) 8(3000m)
So, 19.05. 8:20 1(360m) 8(1140m) 8(3000m)
So, 19.05. 8:10 8
So, 19.05. 8:00 2(1110m) 8(3000m) 8(4500m)
So, 19.05. 7:30 2(960m) 8(1800m) 8(5700m)
So, 19.05. 7:00 7(930m) 8(1230m)
So, 19.05. 6:30 8(870m)
So, 19.05. 6:00 7(870m) 8(2100m)
Ortszeit Stationsdruck (hPa) Tendenz (hPa in 3 Std.)
So, 19.05. 8:00 880 + 0,5
So, 19.05. 2:00 880 - 0,5
Sa, 18.05. 20:00 880 - 0,4
Sa, 18.05. 14:00 881 + 0,7
Sa, 18.05. 8:00 879 + 0,6
Sa, 18.05. 2:00 879 - 0,4
Fr, 17.05. 20:00 879 - 0,4
Fr, 17.05. 14:00 879 + 0,6
Ortszeit Stationsdruck (hPa) Tendenz (hPa in 3 Std.)
So, 19.05. 9:00 880 + 0,5
So, 19.05. 8:50 880 keine Meldung
So, 19.05. 8:40 880 keine Meldung
So, 19.05. 8:30 880 + 0,5
So, 19.05. 8:20 880 keine Meldung
So, 19.05. 8:10 880 keine Meldung
So, 19.05. 8:00 880 + 0,5
So, 19.05. 7:30 880 + 0,3
So, 19.05. 7:00 880 + 0,1
So, 19.05. 6:30 880 0,0
So, 19.05. 6:00 880 - 0,2
Ortszeit Schneehöhe (cm)
So, 19.05. 8:00 0
So, 19.05. 2:00 0
Sa, 18.05. 20:00 0
Sa, 18.05. 14:00 0
Sa, 18.05. 8:00 0
Sa, 18.05. 2:00 0
Fr, 17.05. 20:00 0
Fr, 17.05. 14:00 0
Ortszeit Schneehöhe (cm)
So, 19.05. 9:00 0
So, 19.05. 8:50 0
So, 19.05. 8:40 -
So, 19.05. 8:30 0
So, 19.05. 8:20 0
So, 19.05. 8:10 -
So, 19.05. 8:00 0
So, 19.05. 7:30 0
So, 19.05. 7:00 0
So, 19.05. 6:30 0
So, 19.05. 6:00 0
Link zu dieser Seite / Seite empfehlen

Das Wetter in ...